createdAt,value
2017-10-22T00:00:57.843Z,11.12
2017-10-22T00:01:57.153Z,11.05
2017-10-22T00:02:57.496Z,10.98
2017-10-22T00:03:57.820Z,10.94
2017-10-22T00:04:57.172Z,10.88
2017-10-22T00:05:57.793Z,10.95
2017-10-22T00:06:57.446Z,10.88
2017-10-22T00:07:57.166Z,10.94
2017-10-22T00:08:57.130Z,10.88
2017-10-22T00:09:57.419Z,10.88
2017-10-22T00:10:57.413Z,10.83
2017-10-22T00:11:57.066Z,10.75
2017-10-22T00:12:57.402Z,10.84
2017-10-22T00:13:57.393Z,10.79
2017-10-22T00:14:57.397Z,10.67
2017-10-22T00:15:57.367Z,10.7
2017-10-22T00:16:57.025Z,10.75
2017-10-22T00:17:57.349Z,10.67
2017-10-22T00:18:57.701Z,10.65
2017-10-22T00:19:57.672Z,10.69
2017-10-22T00:20:57.322Z,10.76
2017-10-22T00:21:56.970Z,10.63
2017-10-22T00:22:57.313Z,10.59
2017-10-22T00:23:57.294Z,10.58
2017-10-22T00:24:57.628Z,10.59
2017-10-22T00:25:57.277Z,10.59
2017-10-22T00:26:57.271Z,10.58
2017-10-22T00:27:56.917Z,10.55
2017-10-22T00:28:57.251Z,10.46
2017-10-22T00:29:57.252Z,10.52
2017-10-22T00:30:57.244Z,10.47
2017-10-22T00:31:57.222Z,10.46
2017-10-22T00:32:56.872Z,10.44
2017-10-22T00:33:56.862Z,10.35
2017-10-22T00:34:57.189Z,10.36
2017-10-22T00:35:56.843Z,10.33
2017-10-22T00:36:57.191Z,10.29
2017-10-22T00:37:57.164Z,10.23
2017-10-22T00:38:56.836Z,10.21
2017-10-22T00:39:57.513Z,10.29
2017-10-22T00:40:57.140Z,10.26
2017-10-22T00:41:57.476Z,10.26
2017-10-22T00:42:57.119Z,10.23
2017-10-22T00:43:57.444Z,10.26
2017-10-22T00:44:57.105Z,10.18
2017-10-22T00:45:57.087Z,10.17
2017-10-22T00:46:56.739Z,10.18
2017-10-22T00:47:56.745Z,10.13
2017-10-22T00:48:56.718Z,10.17
2017-10-22T00:49:56.709Z,10.15
2017-10-22T00:50:56.699Z,10.14
2017-10-22T00:51:56.689Z,10.17
2017-10-22T00:52:57.058Z,10.14
2017-10-22T00:53:56.672Z,10.15
2017-10-22T00:54:56.662Z,10.14
2017-10-22T00:55:56.997Z,10.13
2017-10-22T00:56:56.646Z,10.07
2017-10-22T00:57:56.976Z,10.03
2017-10-22T00:58:56.969Z,10.03
2017-10-22T00:59:56.616Z,10.1
2017-10-22T01:00:56.953Z,10.05
2017-10-22T01:01:56.935Z,10.11
2017-10-22T01:02:56.928Z,10.11
2017-10-22T01:03:56.923Z,10.07
2017-10-22T01:04:56.907Z,10.02
2017-10-22T01:05:56.913Z,10.08
2017-10-22T01:06:56.886Z,10.03
2017-10-22T01:07:56.538Z,10.1
2017-10-22T01:08:56.880Z,10
2017-10-22T01:09:56.861Z,10.07
2017-10-22T01:10:56.512Z,10.07
2017-10-22T01:11:57.201Z,10.02
2017-10-22T01:12:56.515Z,10.11
2017-10-22T01:13:56.483Z,9.93
2017-10-22T01:14:56.813Z,9.93
2017-10-22T01:15:56.803Z,9.95
2017-10-22T01:16:56.455Z,9.95
2017-10-22T01:17:56.444Z,9.96
2017-10-22T01:18:56.787Z,9.92
2017-10-22T01:19:56.426Z,9.93
2017-10-22T01:20:57.097Z,9.8
2017-10-22T01:21:57.102Z,9.81
2017-10-22T01:22:56.395Z,9.8
2017-10-22T01:23:56.724Z,9.78
2017-10-22T01:24:56.719Z,9.81
2017-10-22T01:25:56.725Z,9.8
2017-10-22T01:26:56.358Z,9.78
2017-10-22T01:27:56.349Z,9.74
2017-10-22T01:28:56.347Z,9.67
2017-10-22T01:29:56.684Z,9.71
2017-10-22T01:30:56.660Z,9.67
2017-10-22T01:31:56.310Z,9.66
2017-10-22T01:32:57.016Z,9.6
2017-10-22T01:33:56.627Z,9.57
2017-10-22T01:34:56.647Z,9.56
2017-10-22T01:35:56.949Z,9.53
2017-10-22T01:36:56.463Z,9.47
2017-10-22T01:37:56.605Z,9.48
2017-10-22T01:38:56.577Z,9.45
2017-10-22T01:39:56.568Z,9.52
2017-10-22T01:40:56.558Z,9.45
2017-10-22T01:41:56.895Z,9.5
2017-10-22T01:42:56.897Z,9.48
2017-10-22T01:43:56.532Z,9.48
2017-10-22T01:44:56.886Z,9.45
2017-10-22T01:45:56.168Z,9.48
2017-10-22T01:46:56.162Z,9.48
2017-10-22T01:47:56.149Z,9.52
2017-10-22T01:48:56.137Z,9.45
2017-10-22T01:49:56.464Z,9.47
2017-10-22T01:50:56.466Z,9.5
2017-10-22T01:51:56.461Z,9.5
2017-10-22T01:52:56.097Z,9.55
2017-10-22T01:53:56.086Z,9.45
2017-10-22T01:54:56.093Z,9.52
2017-10-22T01:55:56.409Z,9.5
2017-10-22T01:56:56.057Z,9.47
2017-10-22T01:57:56.399Z,9.48
2017-10-22T01:58:56.378Z,9.48
2017-10-22T01:59:56.362Z,9.52
2017-10-22T02:00:56.356Z,9.48
2017-10-22T02:01:56.024Z,9.5
2017-10-22T02:02:56.336Z,9.55
2017-10-22T02:03:56.341Z,9.47
2017-10-22T02:04:56.316Z,9.52
2017-10-22T02:05:55.965Z,9.53
2017-10-22T02:06:55.956Z,9.53
2017-10-22T02:07:56.310Z,9.48
2017-10-22T02:08:56.282Z,9.47
2017-10-22T02:09:55.939Z,9.5
2017-10-22T02:10:55.938Z,9.42
2017-10-22T02:11:56.244Z,9.5
2017-10-22T02:12:56.590Z,9.48
2017-10-22T02:13:56.249Z,9.48
2017-10-22T02:14:56.212Z,9.44
2017-10-22T02:15:55.863Z,9.45
2017-10-22T02:16:55.852Z,9.45
2017-10-22T02:17:56.199Z,9.45
2017-10-22T02:18:55.833Z,9.47
2017-10-22T02:19:55.825Z,9.5
2017-10-22T02:20:56.513Z,9.52
2017-10-22T02:21:56.144Z,9.55
2017-10-22T02:22:55.792Z,9.5
2017-10-22T02:23:55.788Z,9.5
2017-10-22T02:24:55.773Z,9.48
2017-10-22T02:25:56.451Z,9.48
2017-10-22T02:26:55.755Z,9.5
2017-10-22T02:27:55.745Z,9.5
2017-10-22T02:28:55.732Z,9.45
2017-10-22T02:29:55.722Z,9.53
2017-10-22T02:30:55.715Z,9.5
2017-10-22T02:31:56.387Z,9.52
2017-10-22T02:32:55.689Z,9.48
2017-10-22T02:33:55.707Z,9.57
2017-10-22T02:34:56.023Z,9.5
2017-10-22T02:35:56.004Z,9.55
2017-10-22T02:36:55.999Z,9.52
2017-10-22T02:37:55.986Z,9.53
2017-10-22T02:38:55.635Z,9.47
2017-10-22T02:39:55.635Z,9.44
2017-10-22T02:40:55.951Z,9.55
2017-10-22T02:41:55.942Z,9.45
2017-10-22T02:42:55.599Z,9.48
2017-10-22T02:43:55.582Z,9.5
2017-10-22T02:44:55.577Z,9.44
2017-10-22T02:45:55.920Z,9.39
2017-10-22T02:46:56.236Z,9.34
2017-10-22T02:47:55.904Z,9.39
2017-10-22T02:48:55.879Z,9.29
2017-10-22T02:49:55.518Z,9.35
2017-10-22T02:50:56.192Z,9.29
2017-10-22T02:51:55.503Z,9.34
2017-10-22T02:52:55.828Z,9.34
2017-10-22T02:53:55.821Z,9.34
2017-10-22T02:54:55.808Z,9.29
2017-10-22T02:55:55.456Z,9.37
2017-10-22T02:56:55.786Z,9.34
2017-10-22T02:57:55.774Z,9.41
2017-10-22T02:58:55.770Z,9.35
2017-10-22T02:59:55.456Z,9.34
2017-10-22T03:00:55.746Z,9.3
2017-10-22T03:01:56.100Z,9.35
2017-10-22T03:02:55.730Z,9.27
2017-10-22T03:03:55.719Z,9.27
2017-10-22T03:04:55.366Z,9.3
2017-10-22T03:05:55.699Z,9.32
2017-10-22T03:06:55.684Z,9.3
2017-10-22T03:07:55.335Z,9.34
2017-10-22T03:08:55.344Z,9.3
2017-10-22T03:09:55.652Z,9.35
2017-10-22T03:10:55.647Z,9.38
2017-10-22T03:11:55.973Z,9.44
2017-10-22T03:12:55.624Z,9.34
2017-10-22T03:13:55.274Z,9.41
2017-10-22T03:14:55.282Z,9.52
2017-10-22T03:15:55.594Z,9.48
2017-10-22T03:16:55.249Z,9.47
2017-10-22T03:17:55.232Z,9.45
2017-10-22T03:18:55.580Z,9.48
2017-10-22T03:19:55.209Z,9.41
2017-10-22T03:20:55.541Z,9.45
2017-10-22T03:21:55.532Z,9.45
2017-10-22T03:22:55.195Z,9.5
2017-10-22T03:23:55.509Z,9.48
2017-10-22T03:24:55.158Z,9.48
2017-10-22T03:25:55.150Z,9.48
2017-10-22T03:26:55.482Z,9.5
2017-10-22T03:27:55.129Z,9.45
2017-10-22T03:28:55.458Z,9.5
2017-10-22T03:29:55.797Z,9.52
2017-10-22T03:30:55.443Z,9.39
2017-10-22T03:31:55.427Z,9.45
2017-10-22T03:32:55.416Z,9.45
2017-10-22T03:33:55.409Z,9.45
2017-10-22T03:34:55.394Z,9.48
2017-10-22T03:35:55.059Z,9.5
2017-10-22T03:36:55.035Z,9.41
2017-10-22T03:37:55.361Z,9.44
2017-10-22T03:38:55.358Z,9.3
2017-10-22T03:39:55.007Z,9.35
2017-10-22T03:40:55.339Z,9.37
2017-10-22T03:41:55.326Z,9.41
2017-10-22T03:42:54.975Z,9.35
2017-10-22T03:43:55.650Z,9.29
2017-10-22T03:44:54.957Z,9.29
2017-10-22T03:45:55.291Z,9.29
2017-10-22T03:46:55.625Z,9.29
2017-10-22T03:47:54.927Z,9.29
2017-10-22T03:48:55.593Z,9.35
2017-10-22T03:49:54.904Z,9.39
2017-10-22T03:50:54.892Z,9.32
2017-10-22T03:51:55.220Z,9.3
2017-10-22T03:52:54.873Z,9.29
2017-10-22T03:53:54.859Z,9.34
2017-10-22T03:54:55.193Z,9.34
2017-10-22T03:55:55.181Z,9.35
2017-10-22T03:56:54.831Z,9.26
2017-10-22T03:57:55.159Z,9.27
2017-10-22T03:58:54.811Z,9.24
2017-10-22T03:59:54.800Z,9.23
2017-10-22T04:00:55.145Z,9.21
2017-10-22T04:01:54.777Z,9.17
2017-10-22T04:02:55.448Z,9.2
2017-10-22T04:03:55.101Z,9.2
2017-10-22T04:04:54.764Z,9.14
2017-10-22T04:05:55.080Z,9.23
2017-10-22T04:06:55.135Z,9.16
2017-10-22T04:07:54.717Z,9.2
2017-10-22T04:08:54.708Z,9.27
2017-10-22T04:09:54.696Z,9.17
2017-10-22T04:10:54.683Z,9.21
2017-10-22T04:11:55.036Z,9.17
2017-10-22T04:12:54.666Z,9.19
2017-10-22T04:13:54.655Z,9.34
2017-10-22T04:14:55.338Z,9.3
2017-10-22T04:15:54.972Z,9.32
2017-10-22T04:16:54.961Z,9.3
2017-10-22T04:17:54.614Z,9.34
2017-10-22T04:18:55.307Z,9.38
2017-10-22T04:19:54.939Z,9.3
2017-10-22T04:20:54.583Z,9.3
2017-10-22T04:21:54.588Z,9.34
2017-10-22T04:22:54.557Z,9.34
2017-10-22T04:23:54.892Z,9.35
2017-10-22T04:24:54.540Z,9.27
2017-10-22T04:25:54.873Z,9.29
2017-10-22T04:26:54.521Z,9.26
2017-10-22T04:27:54.873Z,9.3
2017-10-22T04:28:54.837Z,9.3
2017-10-22T04:29:54.503Z,9.35
2017-10-22T04:30:55.173Z,9.3
2017-10-22T04:31:54.816Z,9.21
2017-10-22T04:32:55.136Z,9.2
2017-10-22T04:33:54.445Z,9.16
2017-10-22T04:34:54.784Z,9.16
2017-10-22T04:35:54.428Z,9.17
2017-10-22T04:36:54.415Z,9.12
2017-10-22T04:37:54.760Z,9.03
2017-10-22T04:38:54.398Z,9.01
2017-10-22T04:39:54.383Z,9.11
2017-10-22T04:40:54.373Z,9.04
2017-10-22T04:41:54.377Z,9.01
2017-10-22T04:42:54.352Z,8.95
2017-10-22T04:43:54.346Z,8.97
2017-10-22T04:44:54.382Z,8.86
2017-10-22T04:45:54.326Z,8.94
2017-10-22T04:46:54.310Z,9.01
2017-10-22T04:47:54.305Z,8.85
2017-10-22T04:48:54.971Z,8.94
2017-10-22T04:49:54.288Z,8.95
2017-10-22T04:50:54.607Z,8.92
2017-10-22T04:51:54.941Z,8.83
2017-10-22T04:52:54.594Z,8.98
2017-10-22T04:53:54.773Z,8.89
2017-10-22T04:54:54.571Z,8.94
2017-10-22T04:55:54.216Z,8.83
2017-10-22T04:56:54.213Z,8.87
2017-10-22T04:57:54.534Z,8.86
2017-10-22T04:58:54.184Z,8.86
2017-10-22T04:59:54.179Z,8.79
2017-10-22T05:00:54.184Z,8.76
2017-10-22T05:01:54.833Z,8.72
2017-10-22T05:02:54.143Z,8.65
2017-10-22T05:03:54.132Z,8.64
2017-10-22T05:04:54.467Z,8.69
2017-10-22T05:05:54.448Z,8.57
2017-10-22T05:06:54.791Z,8.62
2017-10-22T05:07:54.431Z,8.58
2017-10-22T05:08:54.437Z,8.49
2017-10-22T05:09:54.064Z,8.53
2017-10-22T05:10:54.056Z,8.57
2017-10-22T05:11:54.045Z,8.53
2017-10-22T05:12:54.377Z,8.54
2017-10-22T05:13:54.023Z,8.5
2017-10-22T05:14:54.704Z,8.47
2017-10-22T05:15:54.341Z,8.43
2017-10-22T05:16:54.358Z,8.52
2017-10-22T05:17:53.977Z,8.39
2017-10-22T05:18:54.644Z,8.42
2017-10-22T05:19:54.634Z,8.43
2017-10-22T05:20:54.304Z,8.4
2017-10-22T05:21:53.933Z,8.43
2017-10-22T05:22:53.924Z,8.28
2017-10-22T05:23:54.255Z,8.26
2017-10-22T05:24:54.241Z,8.36
2017-10-22T05:25:54.228Z,8.24
2017-10-22T05:26:54.562Z,8.21
2017-10-22T05:27:54.208Z,8.17
2017-10-22T05:28:54.557Z,8.29
2017-10-22T05:29:54.224Z,8.24
2017-10-22T05:30:53.833Z,8.22
2017-10-22T05:31:53.829Z,8.19
2017-10-22T05:32:54.195Z,8.16
2017-10-22T05:33:53.801Z,8.13
2017-10-22T05:34:53.788Z,8.06
2017-10-22T05:35:53.780Z,8.09
2017-10-22T05:36:54.450Z,8.13
2017-10-22T05:37:54.098Z,7.96
2017-10-22T05:38:53.756Z,7.96
2017-10-22T05:39:54.073Z,7.98
2017-10-22T05:40:53.723Z,7.98
2017-10-22T05:41:54.399Z,7.89
2017-10-22T05:42:53.701Z,7.83
2017-10-22T05:43:53.689Z,7.89
2017-10-22T05:44:53.699Z,7.77
2017-10-22T05:45:53.668Z,7.83
2017-10-22T05:46:54.000Z,7.8
2017-10-22T05:47:53.650Z,7.8
2017-10-22T05:48:53.632Z,7.77
2017-10-22T05:49:53.622Z,7.78
2017-10-22T05:50:53.953Z,7.88
2017-10-22T05:51:53.942Z,7.82
2017-10-22T05:52:53.943Z,7.77
2017-10-22T05:53:53.578Z,7.77
2017-10-22T05:54:54.256Z,7.74
2017-10-22T05:55:53.917Z,7.82
2017-10-22T05:56:53.539Z,7.82
2017-10-22T05:57:53.530Z,7.88
2017-10-22T05:58:53.857Z,7.78
2017-10-22T05:59:53.506Z,7.77
2017-10-22T06:00:53.495Z,7.74
2017-10-22T06:01:53.824Z,7.78
2017-10-22T06:02:53.852Z,7.73
2017-10-22T06:03:53.809Z,7.77
2017-10-22T06:04:53.472Z,7.74
2017-10-22T06:05:53.776Z,7.77
2017-10-22T06:06:53.428Z,7.74
2017-10-22T06:07:54.097Z,7.71
2017-10-22T06:08:53.744Z,7.73
2017-10-22T06:09:53.393Z,7.77
2017-10-22T06:10:53.716Z,7.78
2017-10-22T06:11:53.907Z,7.75
2017-10-22T06:12:53.697Z,7.75
2017-10-22T06:13:53.689Z,7.73
2017-10-22T06:14:53.336Z,7.61
2017-10-22T06:15:53.670Z,7.61
2017-10-22T06:16:53.655Z,7.63
2017-10-22T06:17:53.299Z,7.58
2017-10-22T06:18:53.292Z,7.64
2017-10-22T06:19:53.276Z,7.67
2017-10-22T06:20:53.263Z,7.61
2017-10-22T06:21:53.608Z,7.77
2017-10-22T06:22:53.585Z,7.73
2017-10-22T06:23:53.581Z,7.82
2017-10-22T06:24:53.559Z,7.85
2017-10-22T06:25:53.547Z,7.96
2017-10-22T06:26:53.193Z,7.96
2017-10-22T06:27:53.555Z,7.96
2017-10-22T06:28:53.169Z,8.11
2017-10-22T06:29:53.161Z,8.09
2017-10-22T06:30:53.504Z,8.07
2017-10-22T06:31:53.480Z,8.04
2017-10-22T06:32:53.123Z,8.09
2017-10-22T06:33:53.477Z,7.99
2017-10-22T06:34:53.440Z,8.07
2017-10-22T06:35:53.430Z,8.04
2017-10-22T06:36:53.767Z,8.07
2017-10-22T06:37:53.091Z,8.16
2017-10-22T06:38:53.398Z,8.19
2017-10-22T06:39:53.388Z,8.19
2017-10-22T06:40:53.035Z,8.17
2017-10-22T06:41:53.362Z,8.22
2017-10-22T06:42:53.369Z,8.26
2017-10-22T06:43:52.999Z,8.21
2017-10-22T06:44:53.329Z,8.14
2017-10-22T06:45:53.373Z,8.19
2017-10-22T06:46:53.642Z,8.31
2017-10-22T06:47:52.951Z,8.25
2017-10-22T06:48:53.292Z,8.29
2017-10-22T06:49:52.931Z,8.29
2017-10-22T06:50:53.282Z,8.24
2017-10-22T06:51:52.916Z,8.25
2017-10-22T06:52:53.250Z,8.24
2017-10-22T06:53:52.885Z,8.29
2017-10-22T06:54:52.871Z,8.26
2017-10-22T06:55:53.208Z,8.42
2017-10-22T06:56:52.872Z,8.31
2017-10-22T06:57:53.202Z,8.31
2017-10-22T06:58:53.187Z,8.42
2017-10-22T06:59:53.162Z,8.34
2017-10-22T07:00:52.818Z,8.25
2017-10-22T07:01:53.485Z,8.34
2017-10-22T07:02:52.785Z,8.24
2017-10-22T07:03:53.112Z,8.25
2017-10-22T07:04:53.117Z,8.22
2017-10-22T07:05:52.748Z,8.17
2017-10-22T07:06:53.445Z,8.22
2017-10-22T07:07:52.726Z,8.21
2017-10-22T07:08:53.059Z,8.25
2017-10-22T07:09:52.706Z,8.06
2017-10-22T07:10:53.031Z,8.19
2017-10-22T07:11:53.021Z,8.19
2017-10-22T07:12:52.670Z,8.1
2017-10-22T07:13:52.662Z,8.1
2017-10-22T07:14:53.328Z,8.06
2017-10-22T07:15:52.639Z,8.01
2017-10-22T07:16:52.628Z,7.96
2017-10-22T07:17:52.959Z,7.93
2017-10-22T07:18:52.973Z,7.93
2017-10-22T07:19:52.592Z,7.89
2017-10-22T07:20:52.944Z,7.85
2017-10-22T07:21:52.580Z,7.89
2017-10-22T07:22:52.610Z,7.89
2017-10-22T07:23:52.886Z,7.8
2017-10-22T07:24:52.555Z,7.82
2017-10-22T07:25:52.865Z,7.96
2017-10-22T07:26:52.515Z,7.98
2017-10-22T07:27:52.867Z,8.06
2017-10-22T07:28:52.829Z,8.09
2017-10-22T07:29:53.169Z,8.22
2017-10-22T07:30:52.812Z,8.21
2017-10-22T07:31:53.135Z,8.25
2017-10-22T07:32:52.453Z,8.35
2017-10-22T07:33:52.782Z,8.46
2017-10-22T07:34:52.421Z,8.44
2017-10-22T07:35:52.427Z,8.44
2017-10-22T07:36:52.805Z,8.52
2017-10-22T07:37:52.389Z,8.42
2017-10-22T07:38:52.720Z,8.46
2017-10-22T07:39:52.709Z,8.43
2017-10-22T07:40:52.697Z,8.44
2017-10-22T07:41:52.363Z,8.4
2017-10-22T07:42:53.012Z,8.47
2017-10-22T07:43:52.322Z,8.43
2017-10-22T07:44:52.318Z,8.49
2017-10-22T07:45:52.300Z,8.49
2017-10-22T07:46:52.291Z,8.49
2017-10-22T07:47:52.279Z,8.47
2017-10-22T07:48:52.613Z,8.47
2017-10-22T07:49:52.255Z,8.4
2017-10-22T07:50:52.588Z,8.36
2017-10-22T07:51:52.574Z,8.36
2017-10-22T07:52:52.563Z,8.39
2017-10-22T07:53:52.565Z,8.32
2017-10-22T07:54:52.544Z,8.31
2017-10-22T07:55:52.188Z,8.4
2017-10-22T07:56:52.519Z,8.34
2017-10-22T07:57:52.505Z,8.26
2017-10-22T07:58:52.836Z,8.22
2017-10-22T07:59:52.161Z,8.31
2017-10-22T08:00:52.133Z,8.42
2017-10-22T08:01:52.462Z,8.32
2017-10-22T08:02:52.462Z,8.49
2017-10-22T08:03:52.100Z,8.5
2017-10-22T08:04:52.434Z,8.77
2017-10-22T08:05:52.089Z,8.82
2017-10-22T08:06:52.068Z,8.98
2017-10-22T08:07:52.065Z,9.04
2017-10-22T08:08:52.382Z,9.04
2017-10-22T08:09:52.375Z,9.08
2017-10-22T08:10:52.361Z,9.03
2017-10-22T08:11:52.012Z,9
2017-10-22T08:12:52.000Z,8.92
2017-10-22T08:13:51.992Z,9.03
2017-10-22T08:14:51.981Z,8.97
2017-10-22T08:15:51.988Z,9
2017-10-22T08:16:51.957Z,8.94
2017-10-22T08:17:52.295Z,9.01
2017-10-22T08:18:52.275Z,9.03
2017-10-22T08:19:51.925Z,9.05
2017-10-22T08:20:51.915Z,9.01
2017-10-22T08:21:51.905Z,8.94
2017-10-22T08:22:52.238Z,9.05
2017-10-22T08:23:52.243Z,9
2017-10-22T08:24:52.217Z,9.03
2017-10-22T08:25:51.861Z,8.95
2017-10-22T08:26:51.852Z,9.09
2017-10-22T08:27:51.841Z,9
2017-10-22T08:28:52.168Z,8.97
2017-10-22T08:29:51.819Z,9.09
2017-10-22T08:30:52.149Z,9.05
2017-10-22T08:31:51.793Z,9.05
2017-10-22T08:32:51.810Z,9.04
2017-10-22T08:33:52.117Z,8.95
2017-10-22T08:34:51.767Z,9.01
2017-10-22T08:35:51.754Z,8.86
2017-10-22T08:36:52.423Z,8.89
2017-10-22T08:37:52.073Z,8.89
2017-10-22T08:38:52.072Z,8.95
2017-10-22T08:39:51.716Z,8.95
2017-10-22T08:40:51.706Z,8.97
2017-10-22T08:41:51.690Z,8.94
2017-10-22T08:42:52.018Z,8.95
2017-10-22T08:43:51.669Z,8.9
2017-10-22T08:44:52.001Z,9
2017-10-22T08:45:51.991Z,9.04
2017-10-22T08:46:51.993Z,9.04
2017-10-22T08:47:51.637Z,9.19
2017-10-22T08:48:51.961Z,9.29
2017-10-22T08:49:52.287Z,9.35
2017-10-22T08:50:51.599Z,9.29
2017-10-22T08:51:51.979Z,9.32
2017-10-22T08:52:51.912Z,9.47
2017-10-22T08:53:52.265Z,9.45
2017-10-22T08:54:51.895Z,9.47
2017-10-22T08:55:51.920Z,9.52
2017-10-22T08:56:51.546Z,9.48
2017-10-22T08:57:51.866Z,9.5
2017-10-22T08:58:51.531Z,9.5
2017-10-22T08:59:51.844Z,9.56
2017-10-22T09:00:51.841Z,9.66
2017-10-22T09:01:52.160Z,9.67
2017-10-22T09:02:51.471Z,9.78
2017-10-22T09:03:51.804Z,9.81
2017-10-22T09:04:52.139Z,9.9
2017-10-22T09:05:51.790Z,9.95
2017-10-22T09:06:51.433Z,9.95
2017-10-22T09:07:51.763Z,9.99
2017-10-22T09:08:51.415Z,9.8
2017-10-22T09:09:51.401Z,9.93
2017-10-22T09:10:51.400Z,9.81
2017-10-22T09:11:51.739Z,9.9
2017-10-22T09:12:51.371Z,9.8
2017-10-22T09:13:51.712Z,9.75
2017-10-22T09:14:51.354Z,9.74
2017-10-22T09:15:51.692Z,9.72
2017-10-22T09:16:51.673Z,9.78
2017-10-22T09:17:51.323Z,9.84
2017-10-22T09:18:51.312Z,9.85
2017-10-22T09:19:51.300Z,9.88
2017-10-22T09:20:51.291Z,9.85
2017-10-22T09:21:51.283Z,9.92
2017-10-22T09:22:51.610Z,9.92
2017-10-22T09:23:51.264Z,9.99
2017-10-22T09:24:51.250Z,9.82
2017-10-22T09:25:51.579Z,9.9
2017-10-22T09:26:51.255Z,9.85
2017-10-22T09:27:51.579Z,9.89
2017-10-22T09:28:51.212Z,9.88
2017-10-22T09:29:51.541Z,9.92
2017-10-22T09:30:51.552Z,9.95
2017-10-22T09:31:51.183Z,10.1
2017-10-22T09:32:51.513Z,10
2017-10-22T09:33:51.848Z,10.17
2017-10-22T09:34:51.491Z,10.38
2017-10-22T09:35:51.142Z,10.44
2017-10-22T09:36:51.473Z,10.59
2017-10-22T09:37:51.467Z,10.7
2017-10-22T09:38:51.114Z,10.76
2017-10-22T09:39:51.105Z,10.91
2017-10-22T09:40:51.778Z,11
2017-10-22T09:41:51.099Z,11.12
2017-10-22T09:42:51.418Z,11.31
2017-10-22T09:43:51.068Z,11.45
2017-10-22T09:44:51.060Z,11.51
2017-10-22T09:45:51.052Z,11.48
2017-10-22T09:46:51.041Z,11.48
2017-10-22T09:47:51.374Z,11.3
2017-10-22T09:48:51.380Z,11.12
2017-10-22T09:49:51.012Z,11.08
2017-10-22T09:50:51.690Z,11.12
2017-10-22T09:51:51.671Z,11.02
2017-10-22T09:52:51.333Z,10.88
2017-10-22T09:53:51.314Z,10.9
2017-10-22T09:54:51.316Z,10.97
2017-10-22T09:55:51.297Z,11.06
2017-10-22T09:56:50.969Z,11.02
2017-10-22T09:57:50.958Z,11.13
2017-10-22T09:58:51.278Z,11.35
2017-10-22T09:59:50.924Z,11.51
2017-10-22T10:00:51.260Z,11.57
2017-10-22T10:01:50.915Z,11.67
2017-10-22T10:02:50.906Z,11.84
2017-10-22T10:03:50.901Z,12.01
2017-10-22T10:04:50.878Z,12.15
2017-10-22T10:05:51.212Z,12.13
2017-10-22T10:06:51.201Z,12.2
2017-10-22T10:07:50.855Z,12.34
2017-10-22T10:08:51.195Z,12.13
2017-10-22T10:09:51.199Z,12.16
2017-10-22T10:10:50.829Z,12.08
2017-10-22T10:11:51.500Z,11.95
2017-10-22T10:12:50.819Z,11.68
2017-10-22T10:13:51.166Z,11.56
2017-10-22T10:14:51.138Z,11.42
2017-10-22T10:15:51.140Z,11.16
2017-10-22T10:16:51.120Z,11.12
2017-10-22T10:17:51.128Z,10.92
2017-10-22T10:18:51.100Z,10.75
2017-10-22T10:19:51.093Z,10.57
2017-10-22T10:20:50.765Z,10.47
2017-10-22T10:21:51.080Z,10.41
2017-10-22T10:22:50.725Z,10.32
2017-10-22T10:23:51.074Z,10.28
2017-10-22T10:24:51.052Z,10.33
2017-10-22T10:25:51.384Z,10.46
2017-10-22T10:26:51.374Z,10.54
2017-10-22T10:27:51.029Z,10.67
2017-10-22T10:28:51.019Z,10.67
2017-10-22T10:29:50.667Z,10.8
2017-10-22T10:30:50.996Z,10.79
2017-10-22T10:31:50.987Z,10.76
2017-10-22T10:32:50.977Z,10.94
2017-10-22T10:33:50.969Z,10.94
2017-10-22T10:34:50.966Z,10.97
2017-10-22T10:35:50.966Z,10.97
2017-10-22T10:36:50.624Z,11.03
2017-10-22T10:37:50.933Z,11.16
2017-10-22T10:38:50.606Z,11.1
2017-10-22T10:39:50.575Z,11.39
2017-10-22T10:40:50.567Z,11.42
2017-10-22T10:41:51.242Z,11.49
2017-10-22T10:42:51.229Z,11.61
2017-10-22T10:43:50.542Z,11.79
2017-10-22T10:44:50.533Z,12.03
2017-10-22T10:45:50.860Z,12.26
2017-10-22T10:46:50.514Z,12.43
2017-10-22T10:47:50.846Z,12.7
2017-10-22T10:48:50.533Z,12.8
2017-10-22T10:49:50.827Z,12.98
2017-10-22T10:50:50.479Z,12.83
2017-10-22T10:51:50.813Z,12.8
2017-10-22T10:52:50.480Z,12.56
2017-10-22T10:53:50.803Z,12.43
2017-10-22T10:54:50.450Z,12.22
2017-10-22T10:55:50.777Z,12.15
2017-10-22T10:56:50.770Z,12.05
2017-10-22T10:57:50.425Z,11.91
2017-10-22T10:58:50.758Z,11.81
2017-10-22T10:59:50.753Z,11.66
2017-10-22T11:00:50.399Z,11.67
2017-10-22T11:01:50.405Z,11.63
2017-10-22T11:02:51.066Z,11.59
2017-10-22T11:03:50.504Z,11.63
2017-10-22T11:04:50.716Z,11.61
2017-10-22T11:05:50.716Z,11.59
2017-10-22T11:06:50.693Z,11.61
2017-10-22T11:07:50.683Z,11.61
2017-10-22T11:08:50.681Z,11.57
2017-10-22T11:09:50.327Z,11.75
2017-10-22T11:10:50.660Z,11.86
2017-10-22T11:11:50.327Z,11.91
2017-10-22T11:12:50.303Z,11.88
2017-10-22T11:13:50.647Z,11.88
2017-10-22T11:14:50.640Z,11.82
2017-10-22T11:15:50.278Z,11.82
2017-10-22T11:16:50.285Z,11.84
2017-10-22T11:17:50.600Z,11.91
2017-10-22T11:18:50.936Z,11.82
2017-10-22T11:19:50.587Z,11.89
2017-10-22T11:20:50.239Z,11.85
2017-10-22T11:21:50.227Z,11.76
2017-10-22T11:22:50.220Z,11.82
2017-10-22T11:23:50.550Z,11.67
2017-10-22T11:24:50.565Z,11.71
2017-10-22T11:25:50.245Z,11.7
2017-10-22T11:26:50.532Z,11.56
2017-10-22T11:27:50.178Z,11.57
2017-10-22T11:28:50.513Z,11.66
2017-10-22T11:29:50.508Z,11.67
2017-10-22T11:30:50.500Z,11.73
2017-10-22T11:31:50.148Z,11.61
2017-10-22T11:32:50.485Z,11.6
2017-10-22T11:33:50.143Z,11.57
2017-10-22T11:34:50.125Z,11.67
2017-10-22T11:35:50.115Z,11.88
2017-10-22T11:36:50.446Z,11.94
2017-10-22T11:37:50.434Z,12.03
2017-10-22T11:38:50.777Z,12.15
2017-10-22T11:39:50.427Z,12.2
2017-10-22T11:40:50.079Z,12.26
2017-10-22T11:41:50.417Z,12.22
2017-10-22T11:42:50.077Z,12.16
2017-10-22T11:43:50.053Z,12.15
2017-10-22T11:44:50.388Z,12.03
2017-10-22T11:45:50.401Z,12.04
2017-10-22T11:46:50.030Z,12.03
2017-10-22T11:47:50.357Z,12.08
2017-10-22T11:48:50.357Z,12
2017-10-22T11:49:50.342Z,12.03
2017-10-22T11:50:50.687Z,12.07
2017-10-22T11:51:50.676Z,12.07
2017-10-22T11:52:49.993Z,12.08
2017-10-22T11:53:50.310Z,12.05
2017-10-22T11:54:50.306Z,12.16
2017-10-22T11:55:50.298Z,12.13
2017-10-22T11:56:50.297Z,12.11
2017-10-22T11:57:49.954Z,12.05
2017-10-22T11:58:50.647Z,12.18
2017-10-22T11:59:50.269Z,12.22
2017-10-22T12:00:50.261Z,12.31
2017-10-22T12:01:50.650Z,12.36
2017-10-22T12:02:50.260Z,12.23
2017-10-22T12:03:49.912Z,12.41
2017-10-22T12:04:50.228Z,12.44
2017-10-22T12:05:50.241Z,12.33
2017-10-22T12:06:49.888Z,12.29
2017-10-22T12:07:50.226Z,12.16
2017-10-22T12:08:49.857Z,12.1
2017-10-22T12:09:50.189Z,12.07
2017-10-22T12:10:50.525Z,11.97
2017-10-22T12:11:50.177Z,11.78
2017-10-22T12:12:50.174Z,11.59
2017-10-22T12:13:50.156Z,11.49
2017-10-22T12:14:49.811Z,11.39
2017-10-22T12:15:50.143Z,11.28
2017-10-22T12:16:50.135Z,11.09
2017-10-22T12:17:50.125Z,11.08
2017-10-22T12:18:50.527Z,11.03
2017-10-22T12:19:50.112Z,10.95
2017-10-22T12:20:49.763Z,10.98
2017-10-22T12:21:50.099Z,11
2017-10-22T12:22:50.439Z,10.91
2017-10-22T12:23:50.421Z,10.75
2017-10-22T12:24:49.737Z,10.75
2017-10-22T12:25:49.724Z,10.66
2017-10-22T12:26:50.056Z,10.67
2017-10-22T12:27:50.042Z,10.63
2017-10-22T12:28:49.694Z,10.58
2017-10-22T12:29:49.686Z,10.58
2017-10-22T12:30:49.676Z,10.58
2017-10-22T12:31:49.668Z,10.42
2017-10-22T12:32:49.659Z,10.42
2017-10-22T12:33:49.992Z,10.41
2017-10-22T12:34:49.640Z,10.32
2017-10-22T12:35:49.640Z,10.28
2017-10-22T12:36:49.965Z,10.2
2017-10-22T12:37:49.956Z,10.31
2017-10-22T12:38:49.971Z,10.26
2017-10-22T12:39:49.596Z,10.25
2017-10-22T12:40:49.978Z,10.25
2017-10-22T12:41:49.923Z,10.39
2017-10-22T12:42:49.910Z,10.47
2017-10-22T12:43:49.917Z,10.42
2017-10-22T12:44:49.551Z,10.42
2017-10-22T12:45:49.538Z,10.42
2017-10-22T12:46:50.257Z,10.39
2017-10-22T12:47:49.870Z,10.41
2017-10-22T12:48:49.515Z,10.41
2017-10-22T12:49:49.522Z,10.35
2017-10-22T12:50:50.200Z,10.39
2017-10-22T12:51:49.829Z,10.41
2017-10-22T12:52:49.481Z,10.38
2017-10-22T12:53:49.465Z,10.33
2017-10-22T12:54:50.148Z,10.32
2017-10-22T12:55:49.460Z,10.28
2017-10-22T12:56:49.782Z,10.29
2017-10-22T12:57:49.773Z,10.28
2017-10-22T12:58:49.421Z,10.29
2017-10-22T12:59:49.411Z,10.38
2017-10-22T13:00:50.092Z,10.35
2017-10-22T13:01:49.395Z,10.32
2017-10-22T13:02:49.383Z,10.36
2017-10-22T13:03:49.375Z,10.33
2017-10-22T13:04:49.704Z,10.38
2017-10-22T13:05:49.713Z,10.39
2017-10-22T13:06:49.687Z,10.35
2017-10-22T13:07:49.336Z,10.33
2017-10-22T13:08:49.328Z,10.33
2017-10-22T13:09:49.675Z,10.33
2017-10-22T13:10:49.994Z,10.28
2017-10-22T13:11:49.640Z,10.23
2017-10-22T13:12:49.289Z,10.2